sensor_id;sensor_type;location;lat;lon;timestamp;temperature;humidity
15095;DHT22;7648;52.264;9.632;2023-04-03T00:01:39;2.10;99.90
15095;DHT22;7648;52.264;9.632;2023-04-03T00:05:42;2.10;99.90
15095;DHT22;7648;52.264;9.632;2023-04-03T00:09:44;2.10;99.90
15095;DHT22;7648;52.264;9.632;2023-04-03T00:13:46;2.00;99.90
15095;DHT22;7648;52.264;9.632;2023-04-03T00:17:48;1.90;99.90
15095;DHT22;7648;52.264;9.632;2023-04-03T00:21:51;1.80;99.90
15095;DHT22;7648;52.264;9.632;2023-04-03T00:25:54;1.80;99.90
15095;DHT22;7648;52.264;9.632;2023-04-03T00:29:55;1.80;99.90
15095;DHT22;7648;52.264;9.632;2023-04-03T00:33:58;1.80;99.90
15095;DHT22;7648;52.264;9.632;2023-04-03T00:38:01;1.70;99.90
15095;DHT22;7648;52.264;9.632;2023-04-03T00:42:03;1.70;99.90
15095;DHT22;7648;52.264;9.632;2023-04-03T00:46:05;1.70;99.90
15095;DHT22;7648;52.264;9.632;2023-04-03T00:50:08;1.60;99.90
15095;DHT22;7648;52.264;9.632;2023-04-03T00:54:11;1.60;99.90
15095;DHT22;7648;52.264;9.632;2023-04-03T00:58:15;1.60;99.90
15095;DHT22;7648;52.264;9.632;2023-04-03T01:02:19;1.50;99.90
15095;DHT22;7648;52.264;9.632;2023-04-03T01:06:24;1.50;99.90
15095;DHT22;7648;52.264;9.632;2023-04-03T01:10:29;1.50;99.90
15095;DHT22;7648;52.264;9.632;2023-04-03T01:14:32;1.40;99.90
15095;DHT22;7648;52.264;9.632;2023-04-03T01:18:37;1.30;99.90
15095;DHT22;7648;52.264;9.632;2023-04-03T01:22:43;1.30;99.90
15095;DHT22;7648;52.264;9.632;2023-04-03T01:26:48;1.20;99.90
15095;DHT22;7648;52.264;9.632;2023-04-03T01:30:56;1.20;99.90
15095;DHT22;7648;52.264;9.632;2023-04-03T01:35:02;1.20;99.90
15095;DHT22;7648;52.264;9.632;2023-04-03T01:39:04;1.10;99.90
15095;DHT22;7648;52.264;9.632;2023-04-03T01:43:06;1.10;99.90
15095;DHT22;7648;52.264;9.632;2023-04-03T01:47:09;1.00;99.90
15095;DHT22;7648;52.264;9.632;2023-04-03T01:51:14;1.00;99.90
15095;DHT22;7648;52.264;9.632;2023-04-03T01:55:16;0.90;99.90
15095;DHT22;7648;52.264;9.632;2023-04-03T01:59:18;0.90;99.90
15095;DHT22;7648;52.264;9.632;2023-04-03T02:03:20;0.80;99.90
15095;DHT22;7648;52.264;9.632;2023-04-03T02:07:23;0.70;99.90
15095;DHT22;7648;52.264;9.632;2023-04-03T02:11:25;0.60;99.90
15095;DHT22;7648;52.264;9.632;2023-04-03T02:15:27;0.50;99.90
15095;DHT22;7648;52.264;9.632;2023-04-03T02:19:29;0.40;99.90
15095;DHT22;7648;52.264;9.632;2023-04-03T02:23:33;0.30;99.90
15095;DHT22;7648;52.264;9.632;2023-04-03T02:27:36;0.20;99.90
15095;DHT22;7648;52.264;9.632;2023-04-03T02:31:38;0.20;99.90
15095;DHT22;7648;52.264;9.632;2023-04-03T02:35:40;0.20;99.90
15095;DHT22;7648;52.264;9.632;2023-04-03T02:39:44;0.20;99.90
15095;DHT22;7648;52.264;9.632;2023-04-03T02:43:46;0.10;99.90
15095;DHT22;7648;52.264;9.632;2023-04-03T02:47:48;0.10;99.90
15095;DHT22;7648;52.264;9.632;2023-04-03T02:51:50;0.10;99.90
15095;DHT22;7648;52.264;9.632;2023-04-03T02:55:53;0.00;99.90
15095;DHT22;7648;52.264;9.632;2023-04-03T02:59:55;-0.10;99.90
15095;DHT22;7648;52.264;9.632;2023-04-03T03:03:57;-0.20;99.90
15095;DHT22;7648;52.264;9.632;2023-04-03T03:07:59;-0.20;99.90
15095;DHT22;7648;52.264;9.632;2023-04-03T03:12:03;-0.20;99.90
15095;DHT22;7648;52.264;9.632;2023-04-03T03:16:06;-0.30;99.90
15095;DHT22;7648;52.264;9.632;2023-04-03T03:20:08;-0.30;99.90
15095;DHT22;7648;52.264;9.632;2023-04-03T03:24:10;-0.20;99.90
15095;DHT22;7648;52.264;9.632;2023-04-03T03:28:14;-0.20;99.90
15095;DHT22;7648;52.264;9.632;2023-04-03T03:32:16;-0.30;99.90
15095;DHT22;7648;52.264;9.632;2023-04-03T03:36:18;-0.40;99.90
15095;DHT22;7648;52.264;9.632;2023-04-03T03:40:20;-0.40;99.90
15095;DHT22;7648;52.264;9.632;2023-04-03T03:44:23;-0.50;99.90
15095;DHT22;7648;52.264;9.632;2023-04-03T03:48:25;-0.50;99.90
15095;DHT22;7648;52.264;9.632;2023-04-03T03:52:27;-0.60;99.90
15095;DHT22;7648;52.264;9.632;2023-04-03T03:56:30;-0.70;99.90
15095;DHT22;7648;52.264;9.632;2023-04-03T04:00:34;-0.60;99.90
15095;DHT22;7648;52.264;9.632;2023-04-03T04:04:36;-0.70;99.90
15095;DHT22;7648;52.264;9.632;2023-04-03T04:08:39;-0.70;99.90
15095;DHT22;7648;52.264;9.632;2023-04-03T04:12:43;-0.80;99.90
15095;DHT22;7648;52.264;9.632;2023-04-03T04:16:47;-0.80;99.90
15095;DHT22;7648;52.264;9.632;2023-04-03T04:20:54;-0.80;99.90
15095;DHT22;7648;52.264;9.632;2023-04-03T04:24:57;-0.80;99.90
15095;DHT22;7648;52.264;9.632;2023-04-03T04:29:00;-0.80;99.90
15095;DHT22;7648;52.264;9.632;2023-04-03T04:33:07;-0.80;99.90
15095;DHT22;7648;52.264;9.632;2023-04-03T04:37:09;-0.80;99.90
15095;DHT22;7648;52.264;9.632;2023-04-03T04:41:12;-1.00;99.90
15095;DHT22;7648;52.264;9.632;2023-04-03T04:45:14;-0.90;99.90
15095;DHT22;7648;52.264;9.632;2023-04-03T04:49:20;-0.90;99.90
15095;DHT22;7648;52.264;9.632;2023-04-03T04:53:22;-0.90;99.90
15095;DHT22;7648;52.264;9.632;2023-04-03T04:57:24;-0.90;99.90
15095;DHT22;7648;52.264;9.632;2023-04-03T05:01:27;-0.90;99.90
15095;DHT22;7648;52.264;9.632;2023-04-03T05:05:37;-0.80;99.90
15095;DHT22;7648;52.264;9.632;2023-04-03T05:09:39;-0.90;99.90
15095;DHT22;7648;52.264;9.632;2023-04-03T05:13:43;-0.90;99.90
15095;DHT22;7648;52.264;9.632;2023-04-03T05:17:45;-0.90;99.90
15095;DHT22;7648;52.264;9.632;2023-04-03T05:21:51;-1.00;99.90
15095;DHT22;7648;52.264;9.632;2023-04-03T05:25:53;-0.90;99.90
15095;DHT22;7648;52.264;9.632;2023-04-03T05:29:56;-0.90;99.90
15095;DHT22;7648;52.264;9.632;2023-04-03T05:33:59;-0.80;99.90
15095;DHT22;7648;52.264;9.632;2023-04-03T05:38:05;-0.90;99.90
15095;DHT22;7648;52.264;9.632;2023-04-03T05:42:07;-0.80;99.90
15095;DHT22;7648;52.264;9.632;2023-04-03T05:46:10;-0.80;99.90
15095;DHT22;7648;52.264;9.632;2023-04-03T05:50:14;-0.70;99.90
15095;DHT22;7648;52.264;9.632;2023-04-03T05:54:19;-0.70;99.90
15095;DHT22;7648;52.264;9.632;2023-04-03T05:58:24;-0.60;99.90
15095;DHT22;7648;52.264;9.632;2023-04-03T06:02:27;-0.50;99.90
15095;DHT22;7648;52.264;9.632;2023-04-03T06:06:46;-0.50;99.90
15095;DHT22;7648;52.264;9.632;2023-04-03T06:10:49;-0.40;99.90
15095;DHT22;7648;52.264;9.632;2023-04-03T06:14:52;-0.30;99.90
15095;DHT22;7648;52.264;9.632;2023-04-03T06:18:53;-0.20;99.90
15095;DHT22;7648;52.264;9.632;2023-04-03T06:22:57;-0.10;99.90
15095;DHT22;7648;52.264;9.632;2023-04-03T06:27:00;0.00;99.90
15095;DHT22;7648;52.264;9.632;2023-04-03T06:31:02;0.10;99.90
15095;DHT22;7648;52.264;9.632;2023-04-03T06:35:05;0.20;99.90
15095;DHT22;7648;52.264;9.632;2023-04-03T06:39:08;0.20;99.90
15095;DHT22;7648;52.264;9.632;2023-04-03T06:43:11;0.30;99.90
15095;DHT22;7648;52.264;9.632;2023-04-03T06:47:14;0.40;99.90
15095;DHT22;7648;52.264;9.632;2023-04-03T06:51:21;0.40;99.90
15095;DHT22;7648;52.264;9.632;2023-04-03T06:55:23;0.50;99.90
15095;DHT22;7648;52.264;9.632;2023-04-03T06:59:26;0.50;99.90
15095;DHT22;7648;52.264;9.632;2023-04-03T07:03:28;0.60;99.90
15095;DHT22;7648;52.264;9.632;2023-04-03T07:07:30;0.70;99.90
15095;DHT22;7648;52.264;9.632;2023-04-03T07:11:33;0.80;99.90
15095;DHT22;7648;52.264;9.632;2023-04-03T07:15:36;0.90;99.90
15095;DHT22;7648;52.264;9.632;2023-04-03T07:19:38;1.00;99.90
15095;DHT22;7648;52.264;9.632;2023-04-03T07:23:40;1.10;99.90
15095;DHT22;7648;52.264;9.632;2023-04-03T07:27:42;1.20;99.90
15095;DHT22;7648;52.264;9.632;2023-04-03T07:31:45;1.30;99.90
15095;DHT22;7648;52.264;9.632;2023-04-03T07:35:47;1.40;99.90
15095;DHT22;7648;52.264;9.632;2023-04-03T07:39:49;1.50;99.90
15095;DHT22;7648;52.264;9.632;2023-04-03T07:43:51;1.60;99.90
15095;DHT22;7648;52.264;9.632;2023-04-03T07:47:54;1.60;99.90
15095;DHT22;7648;52.264;9.632;2023-04-03T07:51:56;1.70;99.90
15095;DHT22;7648;52.264;9.632;2023-04-03T07:55:59;1.90;99.90
15095;DHT22;7648;52.264;9.632;2023-04-03T08:00:03;2.00;99.90
15095;DHT22;7648;52.264;9.632;2023-04-03T08:04:14;2.00;99.90
15095;DHT22;7648;52.264;9.632;2023-04-03T08:08:19;2.10;99.90
15095;DHT22;7648;52.264;9.632;2023-04-03T08:12:21;2.20;99.90
15095;DHT22;7648;52.264;9.632;2023-04-03T08:16:23;2.30;99.90
15095;DHT22;7648;52.264;9.632;2023-04-03T08:20:28;2.50;99.90
15095;DHT22;7648;52.264;9.632;2023-04-03T08:24:31;2.60;99.90
15095;DHT22;7648;52.264;9.632;2023-04-03T08:28:32;2.80;99.90
15095;DHT22;7648;52.264;9.632;2023-04-03T08:32:35;3.00;99.90
15095;DHT22;7648;52.264;9.632;2023-04-03T08:36:38;3.20;99.90
15095;DHT22;7648;52.264;9.632;2023-04-03T08:40:40;3.40;99.90
15095;DHT22;7648;52.264;9.632;2023-04-03T08:44:47;3.60;99.90
15095;DHT22;7648;52.264;9.632;2023-04-03T08:48:50;3.70;99.90
15095;DHT22;7648;52.264;9.632;2023-04-03T08:52:56;3.90;99.90
15095;DHT22;7648;52.264;9.632;2023-04-03T08:57:02;3.90;99.90
15095;DHT22;7648;52.264;9.632;2023-04-03T09:01:05;3.80;99.90
15095;DHT22;7648;52.264;9.632;2023-04-03T09:05:13;3.80;99.90
15095;DHT22;7648;52.264;9.632;2023-04-03T09:09:28;3.90;99.90
15095;DHT22;7648;52.264;9.632;2023-04-03T09:13:35;4.20;99.90
15095;DHT22;7648;52.264;9.632;2023-04-03T09:22:12;4.60;99.90
15095;DHT22;7648;52.264;9.632;2023-04-03T09:26:18;4.80;99.90
15095;DHT22;7648;52.264;9.632;2023-04-03T09:30:23;5.00;99.90
15095;DHT22;7648;52.264;9.632;2023-04-03T09:34:27;5.20;99.90
15095;DHT22;7648;52.264;9.632;2023-04-03T09:38:31;5.40;99.90
15095;DHT22;7648;52.264;9.632;2023-04-03T09:42:40;5.70;99.90
15095;DHT22;7648;52.264;9.632;2023-04-03T09:46:42;5.80;99.90
15095;DHT22;7648;52.264;9.632;2023-04-03T09:51:08;5.90;99.90
15095;DHT22;7648;52.264;9.632;2023-04-03T09:55:18;6.10;99.90
15095;DHT22;7648;52.264;9.632;2023-04-03T09:59:23;6.30;99.90
15095;DHT22;7648;52.264;9.632;2023-04-03T10:03:28;6.60;99.90
15095;DHT22;7648;52.264;9.632;2023-04-03T10:07:35;6.80;99.90
15095;DHT22;7648;52.264;9.632;2023-04-03T10:11:37;7.00;99.90
15095;DHT22;7648;52.264;9.632;2023-04-03T10:15:43;7.20;99.90
15095;DHT22;7648;52.264;9.632;2023-04-03T10:19:49;7.30;99.90
15095;DHT22;7648;52.264;9.632;2023-04-03T10:23:59;7.10;99.90
15095;DHT22;7648;52.264;9.632;2023-04-03T10:28:08;7.00;99.90
15095;DHT22;7648;52.264;9.632;2023-04-03T10:32:36;6.80;99.90
15095;DHT22;7648;52.264;9.632;2023-04-03T10:36:47;6.70;99.90
15095;DHT22;7648;52.264;9.632;2023-04-03T10:40:59;6.60;99.90
15095;DHT22;7648;52.264;9.632;2023-04-03T10:45:17;6.50;99.90
15095;DHT22;7648;52.264;9.632;2023-04-03T10:49:36;6.40;99.90
15095;DHT22;7648;52.264;9.632;2023-04-03T10:53:44;6.40;99.90
15095;DHT22;7648;52.264;9.632;2023-04-03T10:57:49;6.30;99.90
15095;DHT22;7648;52.264;9.632;2023-04-03T11:01:55;6.50;99.90
15095;DHT22;7648;52.264;9.632;2023-04-03T11:06:02;7.30;99.90
15095;DHT22;7648;52.264;9.632;2023-04-03T11:10:10;8.20;99.90
15095;DHT22;7648;52.264;9.632;2023-04-03T11:14:21;8.80;99.90
15095;DHT22;7648;52.264;9.632;2023-04-03T11:18:28;8.70;99.90
15095;DHT22;7648;52.264;9.632;2023-04-03T11:22:36;8.40;99.90
15095;DHT22;7648;52.264;9.632;2023-04-03T11:26:40;8.10;99.90
15095;DHT22;7648;52.264;9.632;2023-04-03T11:30:47;7.70;99.90
15095;DHT22;7648;52.264;9.632;2023-04-03T11:34:51;7.50;99.90
15095;DHT22;7648;52.264;9.632;2023-04-03T11:38:58;7.30;99.90
15095;DHT22;7648;52.264;9.632;2023-04-03T11:43:07;7.20;99.90
15095;DHT22;7648;52.264;9.632;2023-04-03T11:47:10;7.20;99.90
15095;DHT22;7648;52.264;9.632;2023-04-03T11:51:38;7.10;99.90
15095;DHT22;7648;52.264;9.632;2023-04-03T11:55:56;7.50;99.90
15095;DHT22;7648;52.264;9.632;2023-04-03T11:59:59;7.80;99.90
15095;DHT22;7648;52.264;9.632;2023-04-03T12:04:09;8.10;99.90
15095;DHT22;7648;52.264;9.632;2023-04-03T12:08:24;8.80;99.90
15095;DHT22;7648;52.264;9.632;2023-04-03T12:12:32;9.90;99.90
15095;DHT22;7648;52.264;9.632;2023-04-03T12:16:43;10.00;99.90
15095;DHT22;7648;52.264;9.632;2023-04-03T12:20:53;9.70;99.90
15095;DHT22;7648;52.264;9.632;2023-04-03T12:24:55;9.40;99.90
15095;DHT22;7648;52.264;9.632;2023-04-03T12:28:58;9.30;99.90
15095;DHT22;7648;52.264;9.632;2023-04-03T12:33:18;9.20;99.90
15095;DHT22;7648;52.264;9.632;2023-04-03T12:37:36;9.10;99.90
15095;DHT22;7648;52.264;9.632;2023-04-03T12:41:48;9.20;99.90
15095;DHT22;7648;52.264;9.632;2023-04-03T12:45:59;9.60;99.90
15095;DHT22;7648;52.264;9.632;2023-04-03T12:50:13;9.80;99.90
15095;DHT22;7648;52.264;9.632;2023-04-03T12:54:30;9.90;99.90
15095;DHT22;7648;52.264;9.632;2023-04-03T12:58:33;9.90;99.90
15095;DHT22;7648;52.264;9.632;2023-04-03T13:02:36;9.80;99.90
15095;DHT22;7648;52.264;9.632;2023-04-03T13:06:39;9.60;99.90
15095;DHT22;7648;52.264;9.632;2023-04-03T13:10:49;9.40;99.90
15095;DHT22;7648;52.264;9.632;2023-04-03T13:14:53;9.20;99.90
15095;DHT22;7648;52.264;9.632;2023-04-03T13:18:58;9.20;99.90
15095;DHT22;7648;52.264;9.632;2023-04-03T13:23:01;9.10;99.90
15095;DHT22;7648;52.264;9.632;2023-04-03T13:27:05;8.90;99.90
15095;DHT22;7648;52.264;9.632;2023-04-03T13:31:13;8.80;99.90
15095;DHT22;7648;52.264;9.632;2023-04-03T13:35:35;8.70;99.90
15095;DHT22;7648;52.264;9.632;2023-04-03T13:39:38;8.80;99.90
15095;DHT22;7648;52.264;9.632;2023-04-03T13:43:41;9.30;99.90
15095;DHT22;7648;52.264;9.632;2023-04-03T13:47:44;9.40;99.90
15095;DHT22;7648;52.264;9.632;2023-04-03T13:51:48;9.20;99.90
15095;DHT22;7648;52.264;9.632;2023-04-03T13:55:59;9.40;99.90
15095;DHT22;7648;52.264;9.632;2023-04-03T14:00:20;9.80;99.90
15095;DHT22;7648;52.264;9.632;2023-04-03T14:04:24;10.10;99.90
15095;DHT22;7648;52.264;9.632;2023-04-03T14:08:27;10.40;99.90
15095;DHT22;7648;52.264;9.632;2023-04-03T14:12:33;10.80;99.90
15095;DHT22;7648;52.264;9.632;2023-04-03T14:16:39;11.00;99.90
15095;DHT22;7648;52.264;9.632;2023-04-03T14:20:42;11.20;99.90
15095;DHT22;7648;52.264;9.632;2023-04-03T14:24:45;11.60;99.90
15095;DHT22;7648;52.264;9.632;2023-04-03T14:28:49;11.60;99.90
15095;DHT22;7648;52.264;9.632;2023-04-03T14:32:51;11.60;99.90
15095;DHT22;7648;52.264;9.632;2023-04-03T14:36:53;11.80;99.90
15095;DHT22;7648;52.264;9.632;2023-04-03T14:40:58;11.70;99.90
15095;DHT22;7648;52.264;9.632;2023-04-03T14:45:01;11.20;99.90
15095;DHT22;7648;52.264;9.632;2023-04-03T14:49:08;10.70;99.90
15095;DHT22;7648;52.264;9.632;2023-04-03T14:53:14;10.40;99.90
15095;DHT22;7648;52.264;9.632;2023-04-03T14:57:18;10.00;99.90
15095;DHT22;7648;52.264;9.632;2023-04-03T15:01:20;9.70;99.90
15095;DHT22;7648;52.264;9.632;2023-04-03T15:05:22;9.90;99.90
15095;DHT22;7648;52.264;9.632;2023-04-03T15:09:26;10.50;99.90
15095;DHT22;7648;52.264;9.632;2023-04-03T15:13:30;11.30;99.90
15095;DHT22;7648;52.264;9.632;2023-04-03T15:17:34;11.70;99.90
15095;DHT22;7648;52.264;9.632;2023-04-03T15:21:37;11.30;99.90
15095;DHT22;7648;52.264;9.632;2023-04-03T15:25:39;10.90;99.90
15095;DHT22;7648;52.264;9.632;2023-04-03T15:29:43;10.50;99.90
15095;DHT22;7648;52.264;9.632;2023-04-03T15:33:45;10.00;99.90
15095;DHT22;7648;52.264;9.632;2023-04-03T15:37:47;9.80;99.90
15095;DHT22;7648;52.264;9.632;2023-04-03T15:41:49;10.30;99.90
15095;DHT22;7648;52.264;9.632;2023-04-03T15:45:56;11.20;99.90
15095;DHT22;7648;52.264;9.632;2023-04-03T15:49:59;12.20;99.90
15095;DHT22;7648;52.264;9.632;2023-04-03T15:54:01;12.80;99.90
15095;DHT22;7648;52.264;9.632;2023-04-03T15:58:04;13.10;99.90
15095;DHT22;7648;52.264;9.632;2023-04-03T16:02:08;12.50;99.90
15095;DHT22;7648;52.264;9.632;2023-04-03T16:06:13;12.20;99.90
15095;DHT22;7648;52.264;9.632;2023-04-03T16:10:17;11.70;99.90
15095;DHT22;7648;52.264;9.632;2023-04-03T16:14:19;10.90;99.90
15095;DHT22;7648;52.264;9.632;2023-04-03T16:18:23;10.30;99.90
15095;DHT22;7648;52.264;9.632;2023-04-03T16:22:25;9.70;99.90
15095;DHT22;7648;52.264;9.632;2023-04-03T16:26:28;9.20;99.90
15095;DHT22;7648;52.264;9.632;2023-04-03T16:30:30;9.00;99.90
15095;DHT22;7648;52.264;9.632;2023-04-03T16:34:34;9.00;99.90
15095;DHT22;7648;52.264;9.632;2023-04-03T16:38:36;9.30;99.90
15095;DHT22;7648;52.264;9.632;2023-04-03T16:42:38;9.30;99.90
15095;DHT22;7648;52.264;9.632;2023-04-03T16:46:40;9.00;99.90
15095;DHT22;7648;52.264;9.632;2023-04-03T16:50:46;8.60;99.90
15095;DHT22;7648;52.264;9.632;2023-04-03T16:54:49;8.40;99.90
15095;DHT22;7648;52.264;9.632;2023-04-03T16:58:55;8.50;99.90
15095;DHT22;7648;52.264;9.632;2023-04-03T17:02:57;8.40;99.90
15095;DHT22;7648;52.264;9.632;2023-04-03T17:07:00;8.40;99.90
15095;DHT22;7648;52.264;9.632;2023-04-03T17:11:06;8.50;99.90
15095;DHT22;7648;52.264;9.632;2023-04-03T17:15:09;8.50;99.90
15095;DHT22;7648;52.264;9.632;2023-04-03T17:19:11;8.20;99.90
15095;DHT22;7648;52.264;9.632;2023-04-03T17:23:14;8.00;99.90
15095;DHT22;7648;52.264;9.632;2023-04-03T17:27:16;7.80;99.90
15095;DHT22;7648;52.264;9.632;2023-04-03T17:31:18;7.60;99.90
15095;DHT22;7648;52.264;9.632;2023-04-03T17:35:20;7.40;99.90
15095;DHT22;7648;52.264;9.632;2023-04-03T17:39:24;7.20;99.90
15095;DHT22;7648;52.264;9.632;2023-04-03T17:43:26;7.00;99.90
15095;DHT22;7648;52.264;9.632;2023-04-03T17:47:28;6.80;99.90
15095;DHT22;7648;52.264;9.632;2023-04-03T17:51:30;6.70;99.90
15095;DHT22;7648;52.264;9.632;2023-04-03T17:55:36;6.60;99.90
15095;DHT22;7648;52.264;9.632;2023-04-03T17:59:38;6.50;99.90
15095;DHT22;7648;52.264;9.632;2023-04-03T18:03:40;6.40;99.90
15095;DHT22;7648;52.264;9.632;2023-04-03T18:07:42;6.30;99.90
15095;DHT22;7648;52.264;9.632;2023-04-03T18:11:46;6.20;99.90
15095;DHT22;7648;52.264;9.632;2023-04-03T18:15:48;6.10;99.90
15095;DHT22;7648;52.264;9.632;2023-04-03T18:19:51;6.00;99.90
15095;DHT22;7648;52.264;9.632;2023-04-03T18:23:54;5.90;99.90
15095;DHT22;7648;52.264;9.632;2023-04-03T18:27:57;5.80;99.90
15095;DHT22;7648;52.264;9.632;2023-04-03T18:32:03;5.70;99.90
15095;DHT22;7648;52.264;9.632;2023-04-03T18:36:06;5.60;99.90
15095;DHT22;7648;52.264;9.632;2023-04-03T18:40:09;5.40;99.90
15095;DHT22;7648;52.264;9.632;2023-04-03T18:44:15;5.30;99.90
15095;DHT22;7648;52.264;9.632;2023-04-03T18:48:19;5.20;99.90
15095;DHT22;7648;52.264;9.632;2023-04-03T18:52:21;5.10;99.90
15095;DHT22;7648;52.264;9.632;2023-04-03T18:56:24;5.10;99.90
15095;DHT22;7648;52.264;9.632;2023-04-03T19:00:28;5.00;99.90
15095;DHT22;7648;52.264;9.632;2023-04-03T19:04:30;4.90;99.90
15095;DHT22;7648;52.264;9.632;2023-04-03T19:08:32;4.80;99.90
15095;DHT22;7648;52.264;9.632;2023-04-03T19:12:34;4.80;99.90
15095;DHT22;7648;52.264;9.632;2023-04-03T19:16:37;4.70;99.90
15095;DHT22;7648;52.264;9.632;2023-04-03T19:20:39;4.70;99.90
15095;DHT22;7648;52.264;9.632;2023-04-03T19:24:41;4.60;99.90
15095;DHT22;7648;52.264;9.632;2023-04-03T19:28:44;4.50;99.90
15095;DHT22;7648;52.264;9.632;2023-04-03T19:32:51;4.40;99.90
15095;DHT22;7648;52.264;9.632;2023-04-03T19:36:53;4.40;99.90
15095;DHT22;7648;52.264;9.632;2023-04-03T19:40:55;4.30;99.90
15095;DHT22;7648;52.264;9.632;2023-04-03T19:44:57;4.20;99.90
15095;DHT22;7648;52.264;9.632;2023-04-03T19:49:00;4.10;99.90
15095;DHT22;7648;52.264;9.632;2023-04-03T19:53:02;4.10;99.90
15095;DHT22;7648;52.264;9.632;2023-04-03T19:57:04;4.00;99.90
15095;DHT22;7648;52.264;9.632;2023-04-03T20:01:07;3.90;99.90
15095;DHT22;7648;52.264;9.632;2023-04-03T20:05:10;3.80;99.90
15095;DHT22;7648;52.264;9.632;2023-04-03T20:09:12;3.80;99.90
15095;DHT22;7648;52.264;9.632;2023-04-03T20:13:15;3.70;99.90
15095;DHT22;7648;52.264;9.632;2023-04-03T20:17:16;3.60;99.90
15095;DHT22;7648;52.264;9.632;2023-04-03T20:21:20;3.50;99.90
15095;DHT22;7648;52.264;9.632;2023-04-03T20:25:24;3.50;99.90
15095;DHT22;7648;52.264;9.632;2023-04-03T20:29:26;3.30;99.90
15095;DHT22;7648;52.264;9.632;2023-04-03T20:33:28;3.30;99.90
15095;DHT22;7648;52.264;9.632;2023-04-03T20:37:31;3.20;99.90
15095;DHT22;7648;52.264;9.632;2023-04-03T20:41:33;3.10;99.90
15095;DHT22;7648;52.264;9.632;2023-04-03T20:45:37;3.10;99.90
15095;DHT22;7648;52.264;9.632;2023-04-03T20:49:39;3.00;99.90
15095;DHT22;7648;52.264;9.632;2023-04-03T20:53:44;3.00;99.90
15095;DHT22;7648;52.264;9.632;2023-04-03T20:57:47;3.00;99.90
15095;DHT22;7648;52.264;9.632;2023-04-03T21:01:49;3.00;99.90
15095;DHT22;7648;52.264;9.632;2023-04-03T21:19:20;2.80;99.90
15095;DHT22;7648;52.264;9.632;2023-04-03T21:23:22;2.70;99.90
15095;DHT22;7648;52.264;9.632;2023-04-03T21:27:24;2.70;99.90
15095;DHT22;7648;52.264;9.632;2023-04-03T21:31:52;2.60;99.90
15095;DHT22;7648;52.264;9.632;2023-04-03T21:35:55;2.60;99.90
15095;DHT22;7648;52.264;9.632;2023-04-03T21:39:59;2.50;99.90
15095;DHT22;7648;52.264;9.632;2023-04-03T21:44:01;2.40;99.90
15095;DHT22;7648;52.264;9.632;2023-04-03T21:48:03;2.40;99.90
15095;DHT22;7648;52.264;9.632;2023-04-03T21:52:06;2.40;99.90
15095;DHT22;7648;52.264;9.632;2023-04-03T21:56:08;2.40;99.90
15095;DHT22;7648;52.264;9.632;2023-04-03T22:00:11;2.30;99.90
15095;DHT22;7648;52.264;9.632;2023-04-03T22:04:14;2.30;99.90
15095;DHT22;7648;52.264;9.632;2023-04-03T22:08:18;2.20;99.90
15095;DHT22;7648;52.264;9.632;2023-04-03T22:12:20;2.20;99.90
15095;DHT22;7648;52.264;9.632;2023-04-03T22:16:22;2.20;99.90
15095;DHT22;7648;52.264;9.632;2023-04-03T22:20:24;2.10;99.90
15095;DHT22;7648;52.264;9.632;2023-04-03T22:24:28;2.00;99.90
15095;DHT22;7648;52.264;9.632;2023-04-03T22:28:31;1.90;99.90
15095;DHT22;7648;52.264;9.632;2023-04-03T22:32:33;1.80;99.90
15095;DHT22;7648;52.264;9.632;2023-04-03T22:36:35;1.70;99.90
15095;DHT22;7648;52.264;9.632;2023-04-03T22:40:39;1.60;99.90
15095;DHT22;7648;52.264;9.632;2023-04-03T22:44:41;1.40;99.90
15095;DHT22;7648;52.264;9.632;2023-04-03T22:48:43;1.30;99.90
15095;DHT22;7648;52.264;9.632;2023-04-03T22:52:45;1.10;99.90
15095;DHT22;7648;52.264;9.632;2023-04-03T22:56:49;1.00;99.90
15095;DHT22;7648;52.264;9.632;2023-04-03T23:00:52;0.90;99.90
15095;DHT22;7648;52.264;9.632;2023-04-03T23:04:54;0.90;99.90
15095;DHT22;7648;52.264;9.632;2023-04-03T23:08:56;0.80;99.90
15095;DHT22;7648;52.264;9.632;2023-04-03T23:12:59;0.80;99.90
15095;DHT22;7648;52.264;9.632;2023-04-03T23:17:01;0.70;99.90
15095;DHT22;7648;52.264;9.632;2023-04-03T23:21:05;0.70;99.90
15095;DHT22;7648;52.264;9.632;2023-04-03T23:25:07;0.50;99.90
15095;DHT22;7648;52.264;9.632;2023-04-03T23:29:11;0.50;99.90
15095;DHT22;7648;52.264;9.632;2023-04-03T23:33:13;0.40;99.90
15095;DHT22;7648;52.264;9.632;2023-04-03T23:37:15;0.40;99.90
15095;DHT22;7648;52.264;9.632;2023-04-03T23:41:17;0.40;99.90
15095;DHT22;7648;52.264;9.632;2023-04-03T23:45:20;0.20;99.90
15095;DHT22;7648;52.264;9.632;2023-04-03T23:49:22;0.20;99.90
15095;DHT22;7648;52.264;9.632;2023-04-03T23:53:24;0.10;99.90
15095;DHT22;7648;52.264;9.632;2023-04-03T23:57:25;0.10;99.90
